sensor_id;sensor_type;location;lat;lon;timestamp;P1;durP1;ratioP1;P2;durP2;ratioP2
10056;SDS011;5068;51.286;7.518;2023-05-10T00:00:49;0.52;;;0.30;;
10056;SDS011;5068;51.286;7.518;2023-05-10T00:02:22;1.10;;;0.25;;
10056;SDS011;5068;51.286;7.518;2023-05-10T00:03:56;1.45;;;0.30;;
10056;SDS011;5068;51.286;7.518;2023-05-10T00:05:30;0.55;;;0.25;;
10056;SDS011;5068;51.286;7.518;2023-05-10T00:08:37;0.93;;;0.38;;
10056;SDS011;5068;51.286;7.518;2023-05-10T00:10:10;0.52;;;0.40;;
10056;SDS011;5068;51.286;7.518;2023-05-10T00:11:44;0.30;;;0.20;;
10056;SDS011;5068;51.286;7.518;2023-05-10T00:13:17;1.38;;;0.30;;
10056;SDS011;5068;51.286;7.518;2023-05-10T00:14:50;1.75;;;0.30;;
10056;SDS011;5068;51.286;7.518;2023-05-10T00:16:22;0.60;;;0.28;;
10056;SDS011;5068;51.286;7.518;2023-05-10T00:17:55;0.63;;;0.20;;
10056;SDS011;5068;51.286;7.518;2023-05-10T00:19:29;0.57;;;0.20;;
10056;SDS011;5068;51.286;7.518;2023-05-10T00:21:04;0.45;;;0.30;;
10056;SDS011;5068;51.286;7.518;2023-05-10T00:22:37;0.77;;;0.20;;
10056;SDS011;5068;51.286;7.518;2023-05-10T00:24:10;1.17;;;0.28;;
10056;SDS011;5068;51.286;7.518;2023-05-10T00:25:44;0.43;;;0.20;;
10056;SDS011;5068;51.286;7.518;2023-05-10T00:27:17;1.50;;;0.20;;
10056;SDS011;5068;51.286;7.518;2023-05-10T00:28:49;1.10;;;0.32;;
10056;SDS011;5068;51.286;7.518;2023-05-10T00:30:22;0.38;;;0.20;;
10056;SDS011;5068;51.286;7.518;2023-05-10T00:31:55;0.75;;;0.30;;
10056;SDS011;5068;51.286;7.518;2023-05-10T00:33:28;2.38;;;0.38;;
10056;SDS011;5068;51.286;7.518;2023-05-10T00:35:01;0.50;;;0.20;;
10056;SDS011;5068;51.286;7.518;2023-05-10T00:36:36;1.05;;;0.20;;
10056;SDS011;5068;51.286;7.518;2023-05-10T00:38:11;0.85;;;0.10;;
10056;SDS011;5068;51.286;7.518;2023-05-10T00:39:43;1.00;;;0.22;;
10056;SDS011;5068;51.286;7.518;2023-05-10T00:41:16;0.22;;;0.10;;
10056;SDS011;5068;51.286;7.518;2023-05-10T00:42:50;0.38;;;0.17;;
10056;SDS011;5068;51.286;7.518;2023-05-10T00:44:23;1.20;;;0.20;;
10056;SDS011;5068;51.286;7.518;2023-05-10T00:45:56;2.72;;;0.43;;
10056;SDS011;5068;51.286;7.518;2023-05-10T00:47:30;0.47;;;0.20;;
10056;SDS011;5068;51.286;7.518;2023-05-10T00:49:05;1.33;;;0.20;;
10056;SDS011;5068;51.286;7.518;2023-05-10T00:50:39;0.65;;;0.20;;
10056;SDS011;5068;51.286;7.518;2023-05-10T00:52:14;0.30;;;0.20;;
10056;SDS011;5068;51.286;7.518;2023-05-10T00:53:47;2.35;;;0.10;;
10056;SDS011;5068;51.286;7.518;2023-05-10T00:55:23;0.65;;;0.10;;
10056;SDS011;5068;51.286;7.518;2023-05-10T00:56:56;0.20;;;0.10;;
10056;SDS011;5068;51.286;7.518;2023-05-10T00:58:30;0.70;;;0.32;;
10056;SDS011;5068;51.286;7.518;2023-05-10T01:00:02;0.75;;;0.30;;
10056;SDS011;5068;51.286;7.518;2023-05-10T01:01:40;0.70;;;0.10;;
10056;SDS011;5068;51.286;7.518;2023-05-10T01:03:14;1.85;;;0.40;;
10056;SDS011;5068;51.286;7.518;2023-05-10T01:04:47;1.65;;;0.40;;
10056;SDS011;5068;51.286;7.518;2023-05-10T01:06:23;0.40;;;0.20;;
10056;SDS011;5068;51.286;7.518;2023-05-10T01:07:58;0.60;;;0.50;;
10056;SDS011;5068;51.286;7.518;2023-05-10T01:09:31;1.27;;;0.40;;
10056;SDS011;5068;51.286;7.518;2023-05-10T01:11:05;0.30;;;0.10;;
10056;SDS011;5068;51.286;7.518;2023-05-10T01:12:39;0.30;;;0.20;;
10056;SDS011;5068;51.286;7.518;2023-05-10T01:14:17;0.82;;;0.40;;
10056;SDS011;5068;51.286;7.518;2023-05-10T01:15:51;0.50;;;0.20;;
10056;SDS011;5068;51.286;7.518;2023-05-10T01:17:26;1.27;;;0.20;;
10056;SDS011;5068;51.286;7.518;2023-05-10T01:18:59;2.40;;;0.40;;
10056;SDS011;5068;51.286;7.518;2023-05-10T01:20:35;0.60;;;0.30;;
10056;SDS011;5068;51.286;7.518;2023-05-10T01:22:22;1.83;;;0.40;;
10056;SDS011;5068;51.286;7.518;2023-05-10T01:24:28;0.50;;;0.20;;
10056;SDS011;5068;51.286;7.518;2023-05-10T01:29:07;2.92;;;0.30;;
10056;SDS011;5068;51.286;7.518;2023-05-10T01:32:56;1.20;;;0.40;;
10056;SDS011;5068;51.286;7.518;2023-05-10T01:34:39;0.82;;;0.28;;
10056;SDS011;5068;51.286;7.518;2023-05-10T01:36:26;0.73;;;0.30;;
10056;SDS011;5068;51.286;7.518;2023-05-10T01:38:09;1.73;;;0.25;;
10056;SDS011;5068;51.286;7.518;2023-05-10T01:39:52;1.65;;;0.30;;
10056;SDS011;5068;51.286;7.518;2023-05-10T01:41:36;1.27;;;0.28;;
10056;SDS011;5068;51.286;7.518;2023-05-10T01:43:19;4.25;;;0.40;;
10056;SDS011;5068;51.286;7.518;2023-05-10T01:45:00;1.08;;;0.30;;
10056;SDS011;5068;51.286;7.518;2023-05-10T01:46:47;1.27;;;0.40;;
10056;SDS011;5068;51.286;7.518;2023-05-10T01:48:30;1.50;;;0.30;;
10056;SDS011;5068;51.286;7.518;2023-05-10T01:50:04;0.93;;;0.40;;
10056;SDS011;5068;51.286;7.518;2023-05-10T01:51:49;0.63;;;0.30;;
10056;SDS011;5068;51.286;7.518;2023-05-10T01:53:25;0.98;;;0.40;;
10056;SDS011;5068;51.286;7.518;2023-05-10T01:55:01;0.80;;;0.40;;
10056;SDS011;5068;51.286;7.518;2023-05-10T01:56:39;0.65;;;0.40;;
10056;SDS011;5068;51.286;7.518;2023-05-10T01:58:15;0.60;;;0.30;;
10056;SDS011;5068;51.286;7.518;2023-05-10T01:59:54;1.25;;;0.40;;
10056;SDS011;5068;51.286;7.518;2023-05-10T02:01:29;2.53;;;0.47;;
10056;SDS011;5068;51.286;7.518;2023-05-10T02:03:05;2.63;;;0.55;;
10056;SDS011;5068;51.286;7.518;2023-05-10T02:04:43;1.27;;;0.50;;
10056;SDS011;5068;51.286;7.518;2023-05-10T02:06:18;1.00;;;0.50;;
10056;SDS011;5068;51.286;7.518;2023-05-10T02:07:54;1.42;;;0.52;;
10056;SDS011;5068;51.286;7.518;2023-05-10T02:09:29;1.10;;;0.40;;
10056;SDS011;5068;51.286;7.518;2023-05-10T02:11:05;2.30;;;0.65;;
10056;SDS011;5068;51.286;7.518;2023-05-10T02:12:42;1.92;;;0.40;;
10056;SDS011;5068;51.286;7.518;2023-05-10T02:14:18;1.15;;;0.60;;
10056;SDS011;5068;51.286;7.518;2023-05-10T02:15:55;1.42;;;0.55;;
10056;SDS011;5068;51.286;7.518;2023-05-10T02:17:30;1.20;;;0.55;;
10056;SDS011;5068;51.286;7.518;2023-05-10T02:19:04;1.30;;;0.60;;
10056;SDS011;5068;51.286;7.518;2023-05-10T02:20:41;1.30;;;0.60;;
10056;SDS011;5068;51.286;7.518;2023-05-10T02:22:19;1.13;;;0.70;;
10056;SDS011;5068;51.286;7.518;2023-05-10T02:23:54;1.58;;;0.63;;
10056;SDS011;5068;51.286;7.518;2023-05-10T02:25:29;1.05;;;0.60;;
10056;SDS011;5068;51.286;7.518;2023-05-10T02:27:05;1.55;;;0.70;;
10056;SDS011;5068;51.286;7.518;2023-05-10T02:28:41;1.10;;;0.40;;
10056;SDS011;5068;51.286;7.518;2023-05-10T02:30:15;1.55;;;0.52;;
10056;SDS011;5068;51.286;7.518;2023-05-10T02:31:49;3.50;;;0.70;;
10056;SDS011;5068;51.286;7.518;2023-05-10T02:33:26;2.00;;;0.57;;
10056;SDS011;5068;51.286;7.518;2023-05-10T02:35:03;2.13;;;0.60;;
10056;SDS011;5068;51.286;7.518;2023-05-10T02:36:38;0.93;;;0.52;;
10056;SDS011;5068;51.286;7.518;2023-05-10T02:38:14;1.45;;;0.60;;
10056;SDS011;5068;51.286;7.518;2023-05-10T02:39:48;1.40;;;0.60;;
10056;SDS011;5068;51.286;7.518;2023-05-10T02:41:23;2.90;;;0.80;;
10056;SDS011;5068;51.286;7.518;2023-05-10T02:44:32;1.88;;;0.60;;
10056;SDS011;5068;51.286;7.518;2023-05-10T02:46:08;1.52;;;0.70;;
10056;SDS011;5068;51.286;7.518;2023-05-10T02:47:42;0.85;;;0.60;;
10056;SDS011;5068;51.286;7.518;2023-05-10T02:49:15;1.30;;;0.80;;
10056;SDS011;5068;51.286;7.518;2023-05-10T02:50:48;1.90;;;0.80;;
10056;SDS011;5068;51.286;7.518;2023-05-10T02:52:27;1.15;;;0.80;;
10056;SDS011;5068;51.286;7.518;2023-05-10T02:54:09;1.30;;;0.63;;
10056;SDS011;5068;51.286;7.518;2023-05-10T02:55:49;1.20;;;0.70;;
10056;SDS011;5068;51.286;7.518;2023-05-10T02:57:28;2.15;;;0.80;;
10056;SDS011;5068;51.286;7.518;2023-05-10T02:59:06;1.25;;;0.75;;
10056;SDS011;5068;51.286;7.518;2023-05-10T03:00:39;1.95;;;0.80;;
10056;SDS011;5068;51.286;7.518;2023-05-10T03:02:12;2.88;;;0.70;;
10056;SDS011;5068;51.286;7.518;2023-05-10T03:03:46;0.80;;;0.50;;
10056;SDS011;5068;51.286;7.518;2023-05-10T03:05:19;3.80;;;0.75;;
10056;SDS011;5068;51.286;7.518;2023-05-10T03:06:52;2.03;;;0.73;;
10056;SDS011;5068;51.286;7.518;2023-05-10T03:08:27;2.13;;;1.00;;
10056;SDS011;5068;51.286;7.518;2023-05-10T03:10:01;1.50;;;0.77;;
10056;SDS011;5068;51.286;7.518;2023-05-10T03:11:39;1.15;;;0.77;;
10056;SDS011;5068;51.286;7.518;2023-05-10T03:13:28;1.50;;;0.77;;
10056;SDS011;5068;51.286;7.518;2023-05-10T03:15:09;1.80;;;0.90;;
10056;SDS011;5068;51.286;7.518;2023-05-10T03:16:52;1.35;;;0.80;;
10056;SDS011;5068;51.286;7.518;2023-05-10T03:18:37;2.13;;;0.77;;
10056;SDS011;5068;51.286;7.518;2023-05-10T03:20:18;1.75;;;1.13;;
10056;SDS011;5068;51.286;7.518;2023-05-10T03:21:55;1.27;;;0.75;;
10056;SDS011;5068;51.286;7.518;2023-05-10T03:23:44;3.00;;;1.17;;
10056;SDS011;5068;51.286;7.518;2023-05-10T03:25:23;2.20;;;1.17;;
10056;SDS011;5068;51.286;7.518;2023-05-10T03:26:58;1.63;;;1.00;;
10056;SDS011;5068;51.286;7.518;2023-05-10T03:28:34;2.67;;;1.10;;
10056;SDS011;5068;51.286;7.518;2023-05-10T03:30:10;2.45;;;1.15;;
10056;SDS011;5068;51.286;7.518;2023-05-10T03:31:45;3.05;;;1.15;;
10056;SDS011;5068;51.286;7.518;2023-05-10T03:33:19;2.28;;;1.20;;
10056;SDS011;5068;51.286;7.518;2023-05-10T03:34:52;2.00;;;1.35;;
10056;SDS011;5068;51.286;7.518;2023-05-10T03:36:25;2.35;;;1.30;;
10056;SDS011;5068;51.286;7.518;2023-05-10T03:37:59;2.88;;;1.40;;
10056;SDS011;5068;51.286;7.518;2023-05-10T03:39:33;1.40;;;1.10;;
10056;SDS011;5068;51.286;7.518;2023-05-10T03:41:07;1.77;;;1.30;;
10056;SDS011;5068;51.286;7.518;2023-05-10T03:42:40;2.40;;;1.42;;
10056;SDS011;5068;51.286;7.518;2023-05-10T03:44:13;2.13;;;1.55;;
10056;SDS011;5068;51.286;7.518;2023-05-10T03:45:48;2.35;;;1.40;;
10056;SDS011;5068;51.286;7.518;2023-05-10T03:47:21;2.95;;;1.88;;
10056;SDS011;5068;51.286;7.518;2023-05-10T03:48:54;2.60;;;2.10;;
10056;SDS011;5068;51.286;7.518;2023-05-10T03:50:26;2.22;;;1.52;;
10056;SDS011;5068;51.286;7.518;2023-05-10T03:51:59;4.20;;;2.20;;
10056;SDS011;5068;51.286;7.518;2023-05-10T03:53:32;4.32;;;1.77;;
10056;SDS011;5068;51.286;7.518;2023-05-10T03:55:07;2.47;;;2.00;;
10056;SDS011;5068;51.286;7.518;2023-05-10T03:56:39;2.45;;;1.70;;
10056;SDS011;5068;51.286;7.518;2023-05-10T03:58:13;2.75;;;2.10;;
10056;SDS011;5068;51.286;7.518;2023-05-10T03:59:47;4.30;;;2.00;;
10056;SDS011;5068;51.286;7.518;2023-05-10T04:01:19;2.83;;;2.25;;
10056;SDS011;5068;51.286;7.518;2023-05-10T04:02:52;3.80;;;2.08;;
10056;SDS011;5068;51.286;7.518;2023-05-10T04:04:26;3.85;;;1.55;;
10056;SDS011;5068;51.286;7.518;2023-05-10T04:05:58;3.58;;;1.75;;
10056;SDS011;5068;51.286;7.518;2023-05-10T04:07:33;2.22;;;1.48;;
10056;SDS011;5068;51.286;7.518;2023-05-10T04:09:06;1.80;;;1.30;;
10056;SDS011;5068;51.286;7.518;2023-05-10T04:10:41;1.85;;;1.23;;
10056;SDS011;5068;51.286;7.518;2023-05-10T04:12:14;2.30;;;1.60;;
10056;SDS011;5068;51.286;7.518;2023-05-10T04:13:47;2.78;;;1.90;;
10056;SDS011;5068;51.286;7.518;2023-05-10T04:15:20;3.55;;;1.65;;
10056;SDS011;5068;51.286;7.518;2023-05-10T04:16:53;3.45;;;2.35;;
10056;SDS011;5068;51.286;7.518;2023-05-10T04:18:26;3.05;;;1.90;;
10056;SDS011;5068;51.286;7.518;2023-05-10T04:19:59;2.75;;;1.65;;
10056;SDS011;5068;51.286;7.518;2023-05-10T04:21:33;2.75;;;1.95;;
10056;SDS011;5068;51.286;7.518;2023-05-10T04:23:06;3.75;;;1.73;;
10056;SDS011;5068;51.286;7.518;2023-05-10T04:24:40;3.45;;;1.65;;
10056;SDS011;5068;51.286;7.518;2023-05-10T04:26:14;3.47;;;2.28;;
10056;SDS011;5068;51.286;7.518;2023-05-10T04:27:47;3.40;;;2.22;;
10056;SDS011;5068;51.286;7.518;2023-05-10T04:29:20;3.20;;;2.22;;
10056;SDS011;5068;51.286;7.518;2023-05-10T04:30:52;4.95;;;1.98;;
10056;SDS011;5068;51.286;7.518;2023-05-10T04:32:32;3.30;;;2.05;;
10056;SDS011;5068;51.286;7.518;2023-05-10T04:34:05;2.70;;;1.75;;
10056;SDS011;5068;51.286;7.518;2023-05-10T04:35:38;4.25;;;2.15;;
10056;SDS011;5068;51.286;7.518;2023-05-10T04:37:12;3.50;;;1.77;;
10056;SDS011;5068;51.286;7.518;2023-05-10T04:38:45;2.90;;;1.95;;
10056;SDS011;5068;51.286;7.518;2023-05-10T04:40:18;2.42;;;1.83;;
10056;SDS011;5068;51.286;7.518;2023-05-10T04:41:52;3.22;;;2.20;;
10056;SDS011;5068;51.286;7.518;2023-05-10T04:43:25;2.85;;;2.13;;
10056;SDS011;5068;51.286;7.518;2023-05-10T04:44:59;4.05;;;2.00;;
10056;SDS011;5068;51.286;7.518;2023-05-10T04:46:32;2.67;;;2.22;;
10056;SDS011;5068;51.286;7.518;2023-05-10T04:48:04;3.78;;;2.35;;
10056;SDS011;5068;51.286;7.518;2023-05-10T04:49:38;4.97;;;2.42;;
10056;SDS011;5068;51.286;7.518;2023-05-10T04:51:11;6.65;;;2.63;;
10056;SDS011;5068;51.286;7.518;2023-05-10T04:52:45;3.67;;;2.53;;
10056;SDS011;5068;51.286;7.518;2023-05-10T04:54:18;5.07;;;2.13;;
10056;SDS011;5068;51.286;7.518;2023-05-10T04:55:51;3.50;;;2.40;;
10056;SDS011;5068;51.286;7.518;2023-05-10T04:57:26;4.03;;;2.30;;
10056;SDS011;5068;51.286;7.518;2023-05-10T04:58:59;4.78;;;2.38;;
10056;SDS011;5068;51.286;7.518;2023-05-10T05:00:32;3.72;;;2.28;;
10056;SDS011;5068;51.286;7.518;2023-05-10T05:02:06;3.25;;;2.30;;
10056;SDS011;5068;51.286;7.518;2023-05-10T05:03:39;4.25;;;2.45;;
10056;SDS011;5068;51.286;7.518;2023-05-10T05:05:13;4.93;;;2.45;;
10056;SDS011;5068;51.286;7.518;2023-05-10T05:06:47;4.03;;;2.78;;
10056;SDS011;5068;51.286;7.518;2023-05-10T05:08:24;3.45;;;2.50;;
10056;SDS011;5068;51.286;7.518;2023-05-10T05:09:57;3.58;;;2.40;;
10056;SDS011;5068;51.286;7.518;2023-05-10T05:11:30;8.07;;;2.80;;
10056;SDS011;5068;51.286;7.518;2023-05-10T05:13:05;4.25;;;2.30;;
10056;SDS011;5068;51.286;7.518;2023-05-10T05:16:11;3.92;;;2.70;;
10056;SDS011;5068;51.286;7.518;2023-05-10T05:17:44;3.38;;;2.35;;
10056;SDS011;5068;51.286;7.518;2023-05-10T05:19:17;3.38;;;2.53;;
10056;SDS011;5068;51.286;7.518;2023-05-10T05:20:50;4.70;;;3.00;;
10056;SDS011;5068;51.286;7.518;2023-05-10T05:22:23;5.10;;;3.10;;
10056;SDS011;5068;51.286;7.518;2023-05-10T05:23:58;4.95;;;3.10;;
10056;SDS011;5068;51.286;7.518;2023-05-10T05:25:32;6.28;;;3.58;;
10056;SDS011;5068;51.286;7.518;2023-05-10T05:27:05;6.38;;;3.20;;
10056;SDS011;5068;51.286;7.518;2023-05-10T05:28:39;6.07;;;3.40;;
10056;SDS011;5068;51.286;7.518;2023-05-10T05:30:13;4.15;;;2.85;;
10056;SDS011;5068;51.286;7.518;2023-05-10T05:31:46;4.50;;;2.92;;
10056;SDS011;5068;51.286;7.518;2023-05-10T05:33:19;3.85;;;2.75;;
10056;SDS011;5068;51.286;7.518;2023-05-10T05:35:09;4.20;;;2.27;;
10056;SDS011;5068;51.286;7.518;2023-05-10T05:36:42;4.60;;;3.38;;
10056;SDS011;5068;51.286;7.518;2023-05-10T05:38:15;6.05;;;3.33;;
10056;SDS011;5068;51.286;7.518;2023-05-10T05:39:49;4.93;;;3.25;;
10056;SDS011;5068;51.286;7.518;2023-05-10T05:41:21;4.00;;;2.97;;
10056;SDS011;5068;51.286;7.518;2023-05-10T05:42:55;4.90;;;3.47;;
10056;SDS011;5068;51.286;7.518;2023-05-10T05:44:30;6.22;;;4.00;;
10056;SDS011;5068;51.286;7.518;2023-05-10T05:46:03;4.68;;;3.35;;
10056;SDS011;5068;51.286;7.518;2023-05-10T05:47:37;7.07;;;3.95;;
10056;SDS011;5068;51.286;7.518;2023-05-10T05:49:10;6.38;;;4.32;;
10056;SDS011;5068;51.286;7.518;2023-05-10T05:50:43;7.88;;;4.63;;
10056;SDS011;5068;51.286;7.518;2023-05-10T05:52:16;6.10;;;4.22;;
10056;SDS011;5068;51.286;7.518;2023-05-10T05:53:49;9.43;;;4.25;;
10056;SDS011;5068;51.286;7.518;2023-05-10T05:55:23;6.22;;;4.40;;
10056;SDS011;5068;51.286;7.518;2023-05-10T05:56:57;6.90;;;4.15;;
10056;SDS011;5068;51.286;7.518;2023-05-10T05:58:32;7.00;;;5.05;;
10056;SDS011;5068;51.286;7.518;2023-05-10T06:00:07;7.28;;;4.78;;
10056;SDS011;5068;51.286;7.518;2023-05-10T06:01:44;8.57;;;5.00;;
10056;SDS011;5068;51.286;7.518;2023-05-10T06:03:17;7.40;;;4.72;;
10056;SDS011;5068;51.286;7.518;2023-05-10T06:04:51;7.15;;;4.97;;
10056;SDS011;5068;51.286;7.518;2023-05-10T06:06:24;8.20;;;5.57;;
10056;SDS011;5068;51.286;7.518;2023-05-10T06:07:59;8.70;;;5.35;;
10056;SDS011;5068;51.286;7.518;2023-05-10T06:09:32;8.57;;;5.25;;
10056;SDS011;5068;51.286;7.518;2023-05-10T06:11:05;9.18;;;5.47;;
10056;SDS011;5068;51.286;7.518;2023-05-10T06:12:38;9.25;;;5.30;;
10056;SDS011;5068;51.286;7.518;2023-05-10T06:14:12;8.95;;;5.43;;
10056;SDS011;5068;51.286;7.518;2023-05-10T06:15:46;8.60;;;5.75;;
10056;SDS011;5068;51.286;7.518;2023-05-10T06:17:19;11.73;;;6.78;;
10056;SDS011;5068;51.286;7.518;2023-05-10T06:18:52;11.18;;;6.53;;
10056;SDS011;5068;51.286;7.518;2023-05-10T06:20:26;10.27;;;6.10;;
10056;SDS011;5068;51.286;7.518;2023-05-10T06:21:59;10.45;;;6.00;;
10056;SDS011;5068;51.286;7.518;2023-05-10T06:23:32;10.85;;;6.90;;
10056;SDS011;5068;51.286;7.518;2023-05-10T06:25:07;9.07;;;6.60;;
10056;SDS011;5068;51.286;7.518;2023-05-10T06:26:41;9.88;;;6.60;;
10056;SDS011;5068;51.286;7.518;2023-05-10T06:28:14;9.48;;;6.13;;
10056;SDS011;5068;51.286;7.518;2023-05-10T06:29:47;12.18;;;7.15;;
10056;SDS011;5068;51.286;7.518;2023-05-10T06:31:30;11.85;;;6.72;;
10056;SDS011;5068;51.286;7.518;2023-05-10T06:34:37;10.23;;;6.43;;
10056;SDS011;5068;51.286;7.518;2023-05-10T06:36:10;11.20;;;8.10;;
10056;SDS011;5068;51.286;7.518;2023-05-10T06:37:44;11.13;;;7.15;;
10056;SDS011;5068;51.286;7.518;2023-05-10T06:39:17;15.27;;;7.70;;
10056;SDS011;5068;51.286;7.518;2023-05-10T06:40:51;11.25;;;7.15;;
10056;SDS011;5068;51.286;7.518;2023-05-10T06:42:24;12.20;;;6.97;;
10056;SDS011;5068;51.286;7.518;2023-05-10T06:43:58;10.80;;;7.25;;
10056;SDS011;5068;51.286;7.518;2023-05-10T06:45:31;14.75;;;7.93;;
10056;SDS011;5068;51.286;7.518;2023-05-10T06:47:06;15.75;;;9.07;;
10056;SDS011;5068;51.286;7.518;2023-05-10T06:48:39;14.25;;;8.10;;
10056;SDS011;5068;51.286;7.518;2023-05-10T06:50:12;13.23;;;8.38;;
10056;SDS011;5068;51.286;7.518;2023-05-10T06:51:46;13.77;;;7.95;;
10056;SDS011;5068;51.286;7.518;2023-05-10T06:53:19;14.32;;;8.25;;
10056;SDS011;5068;51.286;7.518;2023-05-10T06:54:53;12.43;;;7.82;;
10056;SDS011;5068;51.286;7.518;2023-05-10T06:56:26;12.00;;;7.93;;
10056;SDS011;5068;51.286;7.518;2023-05-10T06:57:59;13.02;;;8.00;;
10056;SDS011;5068;51.286;7.518;2023-05-10T06:59:32;11.15;;;7.50;;
10056;SDS011;5068;51.286;7.518;2023-05-10T07:01:05;14.27;;;7.72;;
10056;SDS011;5068;51.286;7.518;2023-05-10T07:02:40;14.27;;;8.10;;
10056;SDS011;5068;51.286;7.518;2023-05-10T07:04:13;13.35;;;7.82;;
10056;SDS011;5068;51.286;7.518;2023-05-10T07:05:47;12.30;;;8.20;;
10056;SDS011;5068;51.286;7.518;2023-05-10T07:07:20;12.00;;;7.47;;
10056;SDS011;5068;51.286;7.518;2023-05-10T07:08:53;11.68;;;7.20;;
10056;SDS011;5068;51.286;7.518;2023-05-10T07:10:27;11.52;;;6.63;;
10056;SDS011;5068;51.286;7.518;2023-05-10T07:12:01;13.00;;;7.25;;
10056;SDS011;5068;51.286;7.518;2023-05-10T07:13:34;14.38;;;8.20;;
10056;SDS011;5068;51.286;7.518;2023-05-10T07:15:10;13.55;;;7.55;;
10056;SDS011;5068;51.286;7.518;2023-05-10T07:16:43;11.93;;;7.32;;
10056;SDS011;5068;51.286;7.518;2023-05-10T07:18:18;12.68;;;8.05;;
10056;SDS011;5068;51.286;7.518;2023-05-10T07:19:51;13.70;;;7.88;;
10056;SDS011;5068;51.286;7.518;2023-05-10T07:21:24;13.30;;;8.63;;
10056;SDS011;5068;51.286;7.518;2023-05-10T07:23:00;13.82;;;8.00;;
10056;SDS011;5068;51.286;7.518;2023-05-10T07:24:33;14.52;;;8.35;;
10056;SDS011;5068;51.286;7.518;2023-05-10T07:26:06;13.55;;;8.25;;
10056;SDS011;5068;51.286;7.518;2023-05-10T07:27:40;14.20;;;8.25;;
10056;SDS011;5068;51.286;7.518;2023-05-10T07:29:13;13.13;;;8.18;;
10056;SDS011;5068;51.286;7.518;2023-05-10T07:30:47;13.23;;;7.75;;
10056;SDS011;5068;51.286;7.518;2023-05-10T07:32:20;11.68;;;7.53;;
10056;SDS011;5068;51.286;7.518;2023-05-10T07:33:55;13.57;;;7.40;;
10056;SDS011;5068;51.286;7.518;2023-05-10T07:35:28;13.85;;;7.25;;
10056;SDS011;5068;51.286;7.518;2023-05-10T07:37:02;9.88;;;7.70;;
10056;SDS011;5068;51.286;7.518;2023-05-10T07:38:35;11.95;;;7.22;;
10056;SDS011;5068;51.286;7.518;2023-05-10T07:40:11;10.52;;;7.35;;
10056;SDS011;5068;51.286;7.518;2023-05-10T07:41:44;11.45;;;6.88;;
10056;SDS011;5068;51.286;7.518;2023-05-10T07:43:17;10.88;;;6.93;;
10056;SDS011;5068;51.286;7.518;2023-05-10T07:44:51;8.90;;;6.15;;
10056;SDS011;5068;51.286;7.518;2023-05-10T07:46:24;11.57;;;6.28;;
10056;SDS011;5068;51.286;7.518;2023-05-10T07:47:57;9.93;;;6.43;;
10056;SDS011;5068;51.286;7.518;2023-05-10T07:49:32;8.68;;;5.82;;
10056;SDS011;5068;51.286;7.518;2023-05-10T07:51:06;10.07;;;6.63;;
10056;SDS011;5068;51.286;7.518;2023-05-10T07:52:40;10.57;;;6.28;;
10056;SDS011;5068;51.286;7.518;2023-05-10T07:54:14;8.07;;;5.53;;
10056;SDS011;5068;51.286;7.518;2023-05-10T07:55:49;9.95;;;5.90;;
10056;SDS011;5068;51.286;7.518;2023-05-10T07:57:23;7.40;;;5.95;;
10056;SDS011;5068;51.286;7.518;2023-05-10T07:58:56;7.72;;;5.70;;
10056;SDS011;5068;51.286;7.518;2023-05-10T08:00:30;10.00;;;6.15;;
10056;SDS011;5068;51.286;7.518;2023-05-10T08:02:04;8.80;;;6.10;;
10056;SDS011;5068;51.286;7.518;2023-05-10T08:03:37;9.43;;;6.55;;
10056;SDS011;5068;51.286;7.518;2023-05-10T08:05:11;7.80;;;6.20;;
10056;SDS011;5068;51.286;7.518;2023-05-10T08:06:46;7.80;;;5.70;;
10056;SDS011;5068;51.286;7.518;2023-05-10T08:08:19;9.13;;;6.15;;
10056;SDS011;5068;51.286;7.518;2023-05-10T08:09:54;9.75;;;6.45;;
10056;SDS011;5068;51.286;7.518;2023-05-10T08:11:28;9.13;;;6.15;;
10056;SDS011;5068;51.286;7.518;2023-05-10T08:13:01;8.30;;;5.88;;
10056;SDS011;5068;51.286;7.518;2023-05-10T08:14:34;12.30;;;6.22;;
10056;SDS011;5068;51.286;7.518;2023-05-10T08:16:08;9.07;;;6.00;;
10056;SDS011;5068;51.286;7.518;2023-05-10T08:17:42;8.63;;;5.85;;
10056;SDS011;5068;51.286;7.518;2023-05-10T08:19:15;7.93;;;5.63;;
10056;SDS011;5068;51.286;7.518;2023-05-10T08:20:51;9.10;;;6.07;;
10056;SDS011;5068;51.286;7.518;2023-05-10T08:22:24;8.52;;;5.60;;
10056;SDS011;5068;51.286;7.518;2023-05-10T08:23:57;7.35;;;5.85;;
10056;SDS011;5068;51.286;7.518;2023-05-10T08:25:31;7.57;;;5.53;;
10056;SDS011;5068;51.286;7.518;2023-05-10T08:27:04;8.10;;;5.95;;
10056;SDS011;5068;51.286;7.518;2023-05-10T08:28:37;7.38;;;5.60;;
10056;SDS011;5068;51.286;7.518;2023-05-10T08:30:11;8.95;;;6.10;;
10056;SDS011;5068;51.286;7.518;2023-05-10T08:31:45;9.85;;;6.40;;
10056;SDS011;5068;51.286;7.518;2023-05-10T08:33:18;6.97;;;4.93;;
10056;SDS011;5068;51.286;7.518;2023-05-10T08:34:51;8.93;;;5.68;;
10056;SDS011;5068;51.286;7.518;2023-05-10T08:36:26;9.02;;;5.60;;
10056;SDS011;5068;51.286;7.518;2023-05-10T08:37:59;7.45;;;5.43;;
10056;SDS011;5068;51.286;7.518;2023-05-10T08:39:33;7.25;;;5.22;;
10056;SDS011;5068;51.286;7.518;2023-05-10T08:41:07;7.97;;;5.70;;
10056;SDS011;5068;51.286;7.518;2023-05-10T08:42:43;9.05;;;5.50;;
10056;SDS011;5068;51.286;7.518;2023-05-10T08:44:22;7.95;;;5.20;;
10056;SDS011;5068;51.286;7.518;2023-05-10T08:45:57;6.20;;;4.50;;
10056;SDS011;5068;51.286;7.518;2023-05-10T08:47:34;6.85;;;4.32;;
10056;SDS011;5068;51.286;7.518;2023-05-10T08:49:09;6.90;;;4.72;;
10056;SDS011;5068;51.286;7.518;2023-05-10T08:50:48;7.20;;;4.65;;
10056;SDS011;5068;51.286;7.518;2023-05-10T08:52:27;7.97;;;4.90;;
10056;SDS011;5068;51.286;7.518;2023-05-10T08:54:03;6.55;;;4.40;;
10056;SDS011;5068;51.286;7.518;2023-05-10T08:55:37;7.18;;;4.10;;
10056;SDS011;5068;51.286;7.518;2023-05-10T08:57:13;6.43;;;4.18;;
10056;SDS011;5068;51.286;7.518;2023-05-10T08:58:46;6.65;;;4.30;;
10056;SDS011;5068;51.286;7.518;2023-05-10T09:00:21;8.30;;;4.57;;
10056;SDS011;5068;51.286;7.518;2023-05-10T09:01:56;7.30;;;4.35;;
10056;SDS011;5068;51.286;7.518;2023-05-10T09:03:31;7.20;;;4.47;;
10056;SDS011;5068;51.286;7.518;2023-05-10T09:05:05;6.05;;;4.20;;
10056;SDS011;5068;51.286;7.518;2023-05-10T09:06:40;7.68;;;4.70;;
10056;SDS011;5068;51.286;7.518;2023-05-10T09:08:15;6.20;;;4.55;;
10056;SDS011;5068;51.286;7.518;2023-05-10T09:09:49;5.72;;;4.40;;
10056;SDS011;5068;51.286;7.518;2023-05-10T09:11:23;7.22;;;4.95;;
10056;SDS011;5068;51.286;7.518;2023-05-10T09:12:57;9.73;;;5.13;;
10056;SDS011;5068;51.286;7.518;2023-05-10T09:14:31;7.20;;;4.90;;
10056;SDS011;5068;51.286;7.518;2023-05-10T09:16:08;6.28;;;4.25;;
10056;SDS011;5068;51.286;7.518;2023-05-10T09:17:52;5.50;;;4.57;;
10056;SDS011;5068;51.286;7.518;2023-05-10T09:19:27;5.40;;;3.90;;
10056;SDS011;5068;51.286;7.518;2023-05-10T09:21:01;5.35;;;3.65;;
10056;SDS011;5068;51.286;7.518;2023-05-10T09:22:34;4.65;;;3.55;;
10056;SDS011;5068;51.286;7.518;2023-05-10T09:24:10;5.35;;;2.97;;
10056;SDS011;5068;51.286;7.518;2023-05-10T09:25:44;3.92;;;3.05;;
10056;SDS011;5068;51.286;7.518;2023-05-10T09:27:17;4.60;;;2.92;;
10056;SDS011;5068;51.286;7.518;2023-05-10T09:28:59;5.18;;;2.60;;
10056;SDS011;5068;51.286;7.518;2023-05-10T09:30:34;4.43;;;3.08;;
10056;SDS011;5068;51.286;7.518;2023-05-10T09:32:08;4.93;;;2.55;;
10056;SDS011;5068;51.286;7.518;2023-05-10T09:33:43;3.80;;;2.65;;
10056;SDS011;5068;51.286;7.518;2023-05-10T09:35:17;5.60;;;2.70;;
10056;SDS011;5068;51.286;7.518;2023-05-10T09:36:53;3.40;;;2.38;;
10056;SDS011;5068;51.286;7.518;2023-05-10T09:38:29;5.20;;;2.53;;
10056;SDS011;5068;51.286;7.518;2023-05-10T09:40:20;3.92;;;2.78;;
10056;SDS011;5068;51.286;7.518;2023-05-10T09:41:55;4.07;;;2.53;;
10056;SDS011;5068;51.286;7.518;2023-05-10T09:43:28;5.85;;;3.22;;
10056;SDS011;5068;51.286;7.518;2023-05-10T09:45:10;6.47;;;3.88;;
10056;SDS011;5068;51.286;7.518;2023-05-10T09:46:48;7.65;;;3.53;;
10056;SDS011;5068;51.286;7.518;2023-05-10T09:48:23;4.75;;;3.03;;
10056;SDS011;5068;51.286;7.518;2023-05-10T09:49:57;6.53;;;3.38;;
10056;SDS011;5068;51.286;7.518;2023-05-10T09:51:34;5.13;;;3.08;;